Time;durP1;ratioP1;P1;durP2;ratioP2;P2;SDS_P1;SDS_P2;PMS_P1;PMS_P2;Temp;Humidity;BMP_temperature;BMP_pressure;BME280_temperature;BME280_humidity;BME280_pressure;Samples;Min_cycle;Max_cycle;Signal;HPM_P1;HPM_P2
2022/08/04 00:01:15;;;;;;;6.10;4.03;;;;;;;;;;5013633;28;20402;-72
2022/08/04 00:04:10;;;;;;;9.03;3.77;;;;;;;;;;5013394;28;20943;-72
2022/08/04 00:06:43;;;;;;;3.53;3.33;;;;;;;;;;4926941;28;20492;-72
2022/08/04 00:09:35;;;;;;;3.50;3.40;;;;;;;;;;5013422;28;20478;-73
2022/08/04 00:12:02;;;;;;;3.77;3.40;;;;;;;;;;4976254;28;20438;-72
2022/08/04 00:14:30;;;;;;;4.93;3.33;;;;;;;;;;5013275;28;20548;-72
2022/08/04 00:16:56;;;;;;;3.20;3.10;;;;;;;;;;4995800;28;20435;-73
2022/08/04 00:19:33;;;;;;;4.23;3.83;;;;;;;;;;5013304;28;20937;-72
2022/08/04 00:22:02;;;;;;;3.30;3.00;;;;;;;;;;4995712;28;20425;-73
2022/08/04 00:24:30;;;;;;;4.40;3.33;;;;;;;;;;5013181;28;20424;-71
2022/08/04 00:26:56;;;;;;;3.37;3.27;;;;;;;;;;5013115;28;20976;-71
2022/08/04 00:29:22;;;;;;;3.53;3.33;;;;;;;;;;5012409;28;20423;-69
2022/08/04 00:31:49;;;;;;;3.17;3.07;;;;;;;;;;4995616;28;21016;-69
2022/08/04 00:34:15;;;;;;;3.77;3.43;;;;;;;;;;5013207;28;20737;-70
2022/08/04 00:36:44;;;;;;;3.50;3.30;;;;;;;;;;5013410;28;20414;-70
2022/08/04 00:39:11;;;;;;;3.47;3.37;;;;;;;;;;5013220;28;20766;-70
2022/08/04 00:41:53;;;;;;;3.50;3.23;;;;;;;;;;4995465;28;20794;-71
2022/08/04 00:44:42;;;;;;;3.70;3.60;;;;;;;;;;5013150;28;21028;-71
2022/08/04 00:47:20;;;;;;;4.17;2.90;;;;;;;;;;5002752;28;20517;-70
2022/08/04 00:49:46;;;;;;;5.90;3.20;;;;;;;;;;5013076;28;20419;-70
2022/08/04 00:52:27;;;;;;;3.37;3.10;;;;;;;;;;5012116;28;20433;-71
2022/08/04 00:55:02;;;;;;;3.60;3.50;;;;;;;;;;4994675;28;20442;-71
2022/08/04 00:57:47;;;;;;;4.10;3.90;;;;;;;;;;5015935;28;20882;-70
2022/08/04 01:00:14;;;;;;;3.27;3.10;;;;;;;;;;5017133;28;20419;-70
2022/08/04 01:02:58;;;;;;;4.27;3.87;;;;;;;;;;4985545;28;20506;-71
2022/08/04 01:05:43;;;;;;;3.33;3.23;;;;;;;;;;5014773;28;20456;-70
2022/08/04 01:08:30;;;;;;;3.80;3.53;;;;;;;;;;5015830;28;20491;-71
2022/08/04 01:11:08;;;;;;;3.33;3.20;;;;;;;;;;5015909;28;20469;-72
2022/08/04 01:13:53;;;;;;;4.13;3.40;;;;;;;;;;5016103;28;20950;-71
2022/08/04 01:16:21;;;;;;;4.33;3.50;;;;;;;;;;5014396;28;20420;-71
2022/08/04 01:18:53;;;;;;;5.60;3.27;;;;;;;;;;5001003;28;20490;-72
2022/08/04 01:21:28;;;;;;;2.90;2.80;;;;;;;;;;5015170;28;20447;-72
2022/08/04 01:24:13;;;;;;;3.20;3.10;;;;;;;;;;5015880;28;20487;-72
2022/08/04 01:26:57;;;;;;;4.47;3.57;;;;;;;;;;5015611;28;20517;-72
2022/08/04 01:29:25;;;;;;;3.13;2.93;;;;;;;;;;5013905;28;20499;-75
2022/08/04 01:32:02;;;;;;;3.17;2.97;;;;;;;;;;5015124;28;20455;-74
2022/08/04 01:34:31;;;;;;;3.30;3.17;;;;;;;;;;5016442;28;20416;-72
2022/08/04 01:37:06;;;;;;;8.43;3.07;;;;;;;;;;5014873;28;20479;-72
2022/08/04 01:39:41;;;;;;;4.13;3.77;;;;;;;;;;5014461;28;20522;-72
2022/08/04 01:42:08;;;;;;;3.40;3.20;;;;;;;;;;5014826;28;20487;-73
2022/08/04 01:44:35;;;;;;;2.83;2.73;;;;;;;;;;5016271;28;20471;-72
2022/08/04 01:47:01;;;;;;;5.43;3.23;;;;;;;;;;5013041;28;20485;-72
2022/08/04 01:49:29;;;;;;;3.63;3.37;;;;;;;;;;5014772;28;20507;-73
2022/08/04 01:51:56;;;;;;;3.33;3.33;;;;;;;;;;5016401;28;20412;-71
2022/08/04 01:54:22;;;;;;;3.40;3.30;;;;;;;;;;5015211;28;20443;-72
2022/08/04 01:56:52;;;;;;;4.20;3.27;;;;;;;;;;5013997;28;20482;-72
2022/08/04 01:59:19;;;;;;;8.43;2.93;;;;;;;;;;5015280;28;20784;-71
2022/08/04 02:01:45;;;;;;;3.27;3.17;;;;;;;;;;4997966;28;21123;-72
2022/08/04 02:04:20;;;;;;;3.43;3.23;;;;;;;;;;5014782;28;20436;-71
2022/08/04 02:06:55;;;;;;;3.90;3.30;;;;;;;;;;5014352;28;20526;-72
2022/08/04 02:09:23;;;;;;;3.60;3.50;;;;;;;;;;5013764;28;20407;-71
2022/08/04 02:11:58;;;;;;;3.13;3.03;;;;;;;;;;5015731;28;20506;-71
2022/08/04 02:14:39;;;;;;;3.43;3.23;;;;;;;;;;4995999;28;20822;-71
2022/08/04 02:17:12;;;;;;;4.43;3.13;;;;;;;;;;5012262;28;20459;-71
2022/08/04 02:19:49;;;;;;;3.33;3.23;;;;;;;;;;5014276;28;20404;-71
2022/08/04 02:22:17;;;;;;;3.43;3.33;;;;;;;;;;5015343;28;20450;-71
2022/08/04 02:24:46;;;;;;;3.97;3.33;;;;;;;;;;5013686;28;20435;-72
2022/08/04 02:27:13;;;;;;;3.43;3.20;;;;;;;;;;5014004;28;21111;-71
2022/08/04 02:30:05;;;;;;;3.67;3.13;;;;;;;;;;5014346;28;20425;-71
2022/08/04 02:32:38;;;;;;;3.47;3.27;;;;;;;;;;5009780;28;20949;-71
2022/08/04 02:35:26;;;;;;;8.47;4.07;;;;;;;;;;5014240;28;20443;-71
2022/08/04 02:37:59;;;;;;;4.23;3.80;;;;;;;;;;5013564;28;20453;-71
2022/08/04 02:40:26;;;;;;;3.90;3.57;;;;;;;;;;4996010;28;20815;-71
2022/08/04 02:42:53;;;;;;;3.50;3.40;;;;;;;;;;5014552;28;20561;-73
2022/08/04 02:45:19;;;;;;;3.93;3.20;;;;;;;;;;5012309;28;20525;-72
2022/08/04 02:47:45;;;;;;;3.50;3.20;;;;;;;;;;5014215;28;20488;-72
2022/08/04 02:50:13;;;;;;;3.50;3.30;;;;;;;;;;5013692;28;20442;-73
2022/08/04 02:52:41;;;;;;;3.80;3.67;;;;;;;;;;5013911;28;20420;-72
2022/08/04 02:55:10;;;;;;;3.33;3.27;;;;;;;;;;5015005;28;20465;-72
2022/08/04 02:57:37;;;;;;;3.60;3.47;;;;;;;;;;5013899;28;20455;-72
2022/08/04 03:00:12;;;;;;;5.50;3.70;;;;;;;;;;5013366;28;20544;-72
2022/08/04 03:02:47;;;;;;;3.20;3.00;;;;;;;;;;5014855;28;20433;-71
2022/08/04 03:05:17;;;;;;;4.40;3.33;;;;;;;;;;4995875;28;20449;-72
2022/08/04 03:07:46;;;;;;;4.13;3.73;;;;;;;;;;5007673;28;20485;-73
2022/08/04 03:10:20;;;;;;;3.77;3.37;;;;;;;;;;5013062;28;20418;-73
2022/08/04 03:12:52;;;;;;;3.63;3.43;;;;;;;;;;5014448;28;20418;-72
2022/08/04 03:15:39;;;;;;;3.40;3.30;;;;;;;;;;5013289;28;20441;-72
2022/08/04 03:18:17;;;;;;;4.93;3.63;;;;;;;;;;5013184;28;20483;-72
2022/08/04 03:20:49;;;;;;;3.47;3.37;;;;;;;;;;4995446;28;20527;-76
2022/08/04 03:23:34;;;;;;;3.07;2.97;;;;;;;;;;5014427;28;20416;-75
2022/08/04 03:26:03;;;;;;;3.77;3.40;;;;;;;;;;4994859;28;20434;-74
2022/08/04 03:28:28;;;;;;;3.70;3.60;;;;;;;;;;5005320;28;20518;-75
2022/08/04 03:31:10;;;;;;;3.53;3.43;;;;;;;;;;5012865;28;20533;-76
2022/08/04 03:33:45;;;;;;;4.50;3.63;;;;;;;;;;5013049;28;20457;-76
2022/08/04 03:36:29;;;;;;;3.13;2.93;;;;;;;;;;5014354;28;20407;-76
2022/08/04 03:39:14;;;;;;;3.53;3.20;;;;;;;;;;5012618;28;20448;-76
2022/08/04 03:41:42;;;;;;;3.40;3.30;;;;;;;;;;5009690;28;20807;-72
2022/08/04 03:44:27;;;;;;;3.63;3.33;;;;;;;;;;5014026;28;20877;-72
2022/08/04 03:47:03;;;;;;;3.57;3.37;;;;;;;;;;5012712;28;20516;-72
2022/08/04 03:49:29;;;;;;;11.17;3.23;;;;;;;;;;5012965;28;20464;-73
2022/08/04 03:54:49;;;;;;;4.00;3.37;;;;;;;;;;5013060;28;20931;-71
2022/08/04 03:57:26;;;;;;;8.73;7.80;;;;;;;;;;4994706;28;20448;-71
2022/08/04 04:00:09;;;;;;;5.13;4.70;;;;;;;;;;4994626;28;20452;-72
2022/08/04 04:02:44;;;;;;;6.80;4.00;;;;;;;;;;4994060;28;20414;-71
2022/08/04 04:05:28;;;;;;;3.90;3.80;;;;;;;;;;5010950;28;20448;-71
2022/08/04 04:08:03;;;;;;;7.40;3.57;;;;;;;;;;5012310;28;20491;-75
2022/08/04 04:10:33;;;;;;;3.93;3.83;;;;;;;;;;5012968;28;20413;-72
2022/08/04 04:13:11;;;;;;;7.03;3.50;;;;;;;;;;4995821;28;20440;-73
2022/08/04 04:15:47;;;;;;;3.80;3.50;;;;;;;;;;5011643;28;20960;-75
2022/08/04 04:18:31;;;;;;;4.10;3.80;;;;;;;;;;5012638;28;20895;-74
2022/08/04 04:21:00;;;;;;;4.40;4.10;;;;;;;;;;4976775;28;20769;-76
2022/08/04 04:23:35;;;;;;;3.37;3.27;;;;;;;;;;5009836;28;20445;-75
2022/08/04 04:26:01;;;;;;;3.80;3.30;;;;;;;;;;5011114;28;20445;-75
2022/08/04 04:28:49;;;;;;;4.17;3.87;;;;;;;;;;5012514;28;20463;-72
2022/08/04 04:31:21;;;;;;;4.30;3.97;;;;;;;;;;5016504;28;20427;-73
2022/08/04 04:34:06;;;;;;;4.00;3.70;;;;;;;;;;4999451;28;20451;-72
2022/08/04 04:36:43;;;;;;;3.90;3.77;;;;;;;;;;5019961;28;20484;-73
2022/08/04 04:39:10;;;;;;;3.77;3.67;;;;;;;;;;5018727;28;20484;-73
2022/08/04 04:41:46;;;;;;;3.53;3.30;;;;;;;;;;5017492;28;20806;-76
2022/08/04 04:44:22;;;;;;;4.77;3.23;;;;;;;;;;5001157;28;20497;-74
2022/08/04 04:47:06;;;;;;;4.00;3.47;;;;;;;;;;5019786;28;20633;-73
2022/08/04 04:50:10;;;;;;;4.50;3.70;;;;;;;;;;5022445;28;20446;-73
2022/08/04 04:52:58;;;;;;;6.00;3.13;;;;;;;;;;4912377;29;20459;-72
2022/08/04 04:55:44;;;;;;;4.03;3.70;;;;;;;;;;4972816;28;20436;-73
2022/08/04 04:58:12;;;;;;;7.40;3.57;;;;;;;;;;5013492;28;20437;-73
2022/08/04 05:00:57;;;;;;;3.67;3.47;;;;;;;;;;5002092;28;20944;-72
2022/08/04 05:03:23;;;;;;;3.87;3.40;;;;;;;;;;5002104;28;20434;-74
2022/08/04 05:06:04;;;;;;;3.40;3.10;;;;;;;;;;5002027;28;20936;-74
2022/08/04 05:08:49;;;;;;;5.27;3.90;;;;;;;;;;5002185;28;20526;-74
2022/08/04 05:11:15;;;;;;;6.60;3.60;;;;;;;;;;5018608;28;20440;-74
2022/08/04 05:13:56;;;;;;;3.73;3.50;;;;;;;;;;5015874;28;20452;-71
2022/08/04 05:16:26;;;;;;;2.63;2.63;;;;;;;;;;5019660;28;20427;-71
2022/08/04 05:19:09;;;;;;;7.20;3.70;;;;;;;;;;5018988;28;20578;-73
2022/08/04 05:21:52;;;;;;;7.43;3.60;;;;;;;;;;5017767;28;20453;-72
2022/08/04 05:24:20;;;;;;;3.50;3.20;;;;;;;;;;4999837;28;20440;-72
2022/08/04 05:26:49;;;;;;;3.47;3.37;;;;;;;;;;5018260;28;21011;-72
2022/08/04 05:29:39;;;;;;;4.20;3.07;;;;;;;;;;5017746;28;20439;-71
2022/08/04 05:32:07;;;;;;;3.47;3.20;;;;;;;;;;5010673;28;20465;-72
2022/08/04 05:34:41;;;;;;;3.70;3.20;;;;;;;;;;5025532;28;20416;-74
2022/08/04 05:37:10;;;;;;;3.97;3.77;;;;;;;;;;5037598;28;20473;-71
2022/08/04 05:39:38;;;;;;;3.27;3.27;;;;;;;;;;5018958;28;20414;-70
2022/08/04 05:42:05;;;;;;;3.47;3.33;;;;;;;;;;4999479;28;20494;-72
2022/08/04 05:44:31;;;;;;;3.73;3.40;;;;;;;;;;5015240;28;20426;-70
2022/08/04 05:46:59;;;;;;;5.70;3.40;;;;;;;;;;5015935;28;20568;-71
2022/08/04 05:49:28;;;;;;;3.40;3.20;;;;;;;;;;5016130;28;20419;-70
2022/08/04 05:51:56;;;;;;;3.27;3.03;;;;;;;;;;4996100;28;20411;-68
2022/08/04 05:54:23;;;;;;;4.77;3.90;;;;;;;;;;4996264;28;20418;-70
2022/08/04 05:56:50;;;;;;;5.27;3.93;;;;;;;;;;4996098;28;20415;-70
2022/08/04 05:59:18;;;;;;;3.83;3.63;;;;;;;;;;5015518;28;20426;-71
2022/08/04 06:01:44;;;;;;;3.87;3.67;;;;;;;;;;5015739;28;20442;-70
2022/08/04 06:04:11;;;;;;;4.07;3.97;;;;;;;;;;5015444;28;20422;-70
2022/08/04 06:06:37;;;;;;;3.50;3.20;;;;;;;;;;5013720;28;20475;-70
2022/08/04 06:09:03;;;;;;;3.83;3.53;;;;;;;;;;5014987;28;20478;-70
2022/08/04 06:11:29;;;;;;;5.97;4.17;;;;;;;;;;5015369;28;20461;-70
2022/08/04 06:13:59;;;;;;;4.43;4.00;;;;;;;;;;5015479;28;20437;-70
2022/08/04 06:16:26;;;;;;;3.60;3.50;;;;;;;;;;4997435;28;20420;-69
2022/08/04 06:18:53;;;;;;;3.37;3.13;;;;;;;;;;5015358;28;20899;-69
2022/08/04 06:21:22;;;;;;;3.83;3.53;;;;;;;;;;5031329;28;20418;-70
2022/08/04 06:23:48;;;;;;;4.13;3.80;;;;;;;;;;5020870;28;20454;-76
2022/08/04 06:26:18;;;;;;;4.73;3.60;;;;;;;;;;4997709;28;20520;-72
2022/08/04 06:28:46;;;;;;;4.27;4.00;;;;;;;;;;5015329;28;20481;-73
2022/08/04 06:31:12;;;;;;;3.77;3.40;;;;;;;;;;5014872;28;20409;-73
2022/08/04 06:33:38;;;;;;;4.23;3.87;;;;;;;;;;5015285;28;20774;-75
2022/08/04 06:36:06;;;;;;;8.27;4.20;;;;;;;;;;5015267;28;20395;-75
2022/08/04 06:38:34;;;;;;;4.00;3.70;;;;;;;;;;5015245;28;20406;-74
2022/08/04 06:41:02;;;;;;;6.03;3.67;;;;;;;;;;5015012;28;20881;-73
2022/08/04 06:43:28;;;;;;;4.37;4.07;;;;;;;;;;4994349;28;20471;-76
2022/08/04 06:45:55;;;;;;;9.50;4.33;;;;;;;;;;5009018;28;20556;-74
2022/08/04 06:48:22;;;;;;;4.67;4.00;;;;;;;;;;5014122;28;20486;-72
2022/08/04 06:50:48;;;;;;;3.40;3.30;;;;;;;;;;4993244;28;20536;-72
2022/08/04 06:53:14;;;;;;;212.87;19.10;;;;;;;;;;5012371;28;20436;-77
2022/08/04 06:55:42;;;;;;;6.70;4.17;;;;;;;;;;5014625;28;20401;-73
2022/08/04 06:58:09;;;;;;;26.60;6.40;;;;;;;;;;5012425;28;20571;-77
2022/08/04 07:00:36;;;;;;;9.63;3.37;;;;;;;;;;4998203;28;20429;-78
2022/08/04 07:03:02;;;;;;;15.77;4.50;;;;;;;;;;5007460;28;20439;-78
2022/08/04 07:05:29;;;;;;;3.43;3.30;;;;;;;;;;4996658;28;20418;-72
2022/08/04 07:07:55;;;;;;;3.30;3.20;;;;;;;;;;5004162;28;20479;-77
2022/08/04 07:10:22;;;;;;;4.73;3.57;;;;;;;;;;4996892;28;20430;-73
2022/08/04 07:12:49;;;;;;;7.20;3.63;;;;;;;;;;5014583;28;20516;-77
2022/08/04 07:15:16;;;;;;;4.80;3.40;;;;;;;;;;5014096;28;20475;-76
2022/08/04 07:17:43;;;;;;;8.40;3.53;;;;;;;;;;5011951;28;20442;-76
2022/08/04 07:20:09;;;;;;;3.93;3.67;;;;;;;;;;5014103;28;20765;-75
2022/08/04 07:22:35;;;;;;;4.30;3.00;;;;;;;;;;4994224;28;21002;-77
2022/08/04 07:25:01;;;;;;;3.47;3.23;;;;;;;;;;5014095;28;20443;-76
2022/08/04 07:27:27;;;;;;;9.80;4.70;;;;;;;;;;5009456;28;20571;-76
2022/08/04 07:29:53;;;;;;;4.00;3.70;;;;;;;;;;5009127;28;20912;-82
2022/08/04 07:32:20;;;;;;;3.33;3.03;;;;;;;;;;5016219;28;20431;-82
2022/08/04 07:34:46;;;;;;;3.40;3.30;;;;;;;;;;5015995;28;20427;-80
2022/08/04 07:37:12;;;;;;;3.67;3.37;;;;;;;;;;5013809;28;20420;-80
2022/08/04 07:39:39;;;;;;;2.93;2.83;;;;;;;;;;5025904;28;20431;-77
2022/08/04 07:42:05;;;;;;;3.30;3.20;;;;;;;;;;5033520;28;20484;-80
2022/08/04 07:44:32;;;;;;;4.13;3.20;;;;;;;;;;5033488;28;20410;-79
2022/08/04 07:46:58;;;;;;;3.00;2.90;;;;;;;;;;5032908;28;20524;-77
2022/08/04 07:49:25;;;;;;;4.23;3.30;;;;;;;;;;5033091;28;20813;-78
2022/08/04 07:51:51;;;;;;;2.57;2.47;;;;;;;;;;5033639;28;20429;-77
2022/08/04 07:54:17;;;;;;;5.93;3.60;;;;;;;;;;5033499;28;20820;-77
2022/08/04 07:56:44;;;;;;;3.37;3.27;;;;;;;;;;5033654;28;20409;-77
2022/08/04 07:59:10;;;;;;;5.50;3.03;;;;;;;;;;5033841;28;20415;-76
2022/08/04 08:01:36;;;;;;;3.50;3.20;;;;;;;;;;5033903;28;20458;-78
2022/08/04 08:04:05;;;;;;;3.27;3.07;;;;;;;;;;5033384;28;20490;-73
2022/08/04 08:06:31;;;;;;;2.80;2.53;;;;;;;;;;5032841;28;20459;-74
2022/08/04 08:08:59;;;;;;;3.43;2.87;;;;;;;;;;5015703;28;20835;-74
2022/08/04 08:11:26;;;;;;;4.93;3.20;;;;;;;;;;5033464;28;20396;-74
2022/08/04 08:13:52;;;;;;;3.43;2.40;;;;;;;;;;5033145;28;20431;-75
2022/08/04 08:16:19;;;;;;;3.30;3.10;;;;;;;;;;5033130;28;20388;-73
2022/08/04 08:18:46;;;;;;;2.60;2.50;;;;;;;;;;5033091;28;20408;-78
2022/08/04 08:21:12;;;;;;;2.80;2.70;;;;;;;;;;5033445;28;20388;-77
2022/08/04 08:23:39;;;;;;;2.60;2.60;;;;;;;;;;5033158;28;20467;-72
2022/08/04 08:26:05;;;;;;;3.13;3.13;;;;;;;;;;5033402;28;20412;-73
2022/08/04 08:28:31;;;;;;;4.40;3.33;;;;;;;;;;5033469;28;20424;-76
2022/08/04 08:30:57;;;;;;;2.77;2.70;;;;;;;;;;5032882;28;20621;-82
2022/08/04 08:33:25;;;;;;;7.10;3.27;;;;;;;;;;5031890;28;20416;-80
2022/08/04 08:35:54;;;;;;;5.47;2.80;;;;;;;;;;5032192;28;20396;-77
2022/08/04 08:38:26;;;;;;;2.70;2.60;;;;;;;;;;5032938;28;20415;-75
2022/08/04 08:40:58;;;;;;;2.77;2.30;;;;;;;;;;5031936;28;20412;-74
2022/08/04 08:43:34;;;;;;;2.53;2.10;;;;;;;;;;5032023;28;20472;-76
2022/08/04 08:46:06;;;;;;;2.90;2.70;;;;;;;;;;5032033;28;20404;-73
2022/08/04 08:48:51;;;;;;;2.80;2.60;;;;;;;;;;5032067;28;20444;-75
2022/08/04 08:51:30;;;;;;;2.97;2.50;;;;;;;;;;5031976;28;20439;-76
2022/08/04 08:54:02;;;;;;;7.43;2.53;;;;;;;;;;5032290;28;20404;-76
2022/08/04 08:56:36;;;;;;;2.37;2.37;;;;;;;;;;5032261;28;20816;-80
2022/08/04 08:59:02;;;;;;;2.60;2.30;;;;;;;;;;5032149;28;20410;-82
2022/08/04 09:01:31;;;;;;;5.17;2.20;;;;;;;;;;5014414;28;20997;-80
2022/08/04 09:04:03;;;;;;;3.87;2.57;;;;;;;;;;5032710;28;20636;-79
2022/08/04 09:06:38;;;;;;;2.70;2.40;;;;;;;;;;5032819;28;20452;-81
2022/08/04 09:09:07;;;;;;;2.70;2.60;;;;;;;;;;5032802;28;20408;-82
2022/08/04 09:11:43;;;;;;;2.33;2.23;;;;;;;;;;5032550;28;20396;-77
2022/08/04 09:14:18;;;;;;;3.23;2.60;;;;;;;;;;5032613;28;20422;-73
2022/08/04 09:16:56;;;;;;;2.30;2.20;;;;;;;;;;5032493;28;20406;-81
2022/08/04 09:19:30;;;;;;;2.20;2.10;;;;;;;;;;5036190;28;20494;-78
2022/08/04 09:22:13;;;;;;;2.60;2.40;;;;;;;;;;5036880;28;20940;-77
2022/08/04 09:25:09;;;;;;;2.50;2.40;;;;;;;;;;5036740;28;20414;-80
2022/08/04 09:27:39;;;;;;;2.63;2.53;;;;;;;;;;5019690;28;20487;-77
2022/08/04 09:30:07;;;;;;;2.90;2.70;;;;;;;;;;5036620;28;20404;-77
2022/08/04 09:32:40;;;;;;;2.43;2.20;;;;;;;;;;5036531;28;20399;-77
2022/08/04 09:35:13;;;;;;;2.23;2.23;;;;;;;;;;5036692;28;20396;-80
2022/08/04 09:37:46;;;;;;;2.40;2.30;;;;;;;;;;5036665;28;20419;-82
2022/08/04 09:40:15;;;;;;;2.40;2.30;;;;;;;;;;5036782;28;20442;-78
2022/08/04 09:42:41;;;;;;;2.60;2.60;;;;;;;;;;5036767;28;20471;-80
2022/08/04 09:45:12;;;;;;;2.50;2.00;;;;;;;;;;5036817;28;20403;-82
2022/08/04 09:47:41;;;;;;;2.27;2.17;;;;;;;;;;5036434;28;20533;-79
2022/08/04 09:50:14;;;;;;;2.60;2.40;;;;;;;;;;5036372;28;20878;-78
2022/08/04 09:52:49;;;;;;;3.57;2.40;;;;;;;;;;5036363;28;20765;-81
2022/08/04 09:55:25;;;;;;;4.00;2.50;;;;;;;;;;5036348;28;20404;-77
2022/08/04 09:57:55;;;;;;;2.70;1.90;;;;;;;;;;5036744;28;20414;-81
2022/08/04 10:00:22;;;;;;;6.10;2.30;;;;;;;;;;5036215;28;20763;-78
2022/08/04 10:02:56;;;;;;;2.07;2.00;;;;;;;;;;5036329;28;20415;-81
2022/08/04 10:05:24;;;;;;;2.20;2.20;;;;;;;;;;5036654;28;20397;-79
2022/08/04 10:08:01;;;;;;;2.10;2.10;;;;;;;;;;5036252;28;20490;-79
2022/08/04 10:10:36;;;;;;;1.93;1.90;;;;;;;;;;5036010;28;20470;-77
2022/08/04 10:13:05;;;;;;;3.40;2.07;;;;;;;;;;5037739;28;20874;-78
2022/08/04 10:15:52;;;;;;;1.53;1.43;;;;;;;;;;5036771;28;20893;-80
2022/08/04 10:18:36;;;;;;;2.40;1.80;;;;;;;;;;5036277;28;20395;-78
2022/08/04 10:21:05;;;;;;;3.77;1.50;;;;;;;;;;5036018;28;20412;-79
2022/08/04 10:23:44;;;;;;;1.97;1.63;;;;;;;;;;5035705;28;20960;-77
2022/08/04 10:26:28;;;;;;;2.20;2.07;;;;;;;;;;5035802;28;20747;-78
2022/08/04 10:29:02;;;;;;;6.27;1.50;;;;;;;;;;5035141;28;20427;-80
2022/08/04 10:31:36;;;;;;;1.77;1.67;;;;;;;;;;5035809;28;20392;-81
2022/08/04 10:34:07;;;;;;;3.03;1.40;;;;;;;;;;5035481;28;20405;-83
2022/08/04 10:36:41;;;;;;;5.50;1.60;;;;;;;;;;5035469;28;20546;-79
2022/08/04 10:39:11;;;;;;;2.47;1.20;;;;;;;;;;5035369;28;20419;-78
2022/08/04 10:41:55;;;;;;;3.20;1.20;;;;;;;;;;5035185;28;20426;-79
2022/08/04 10:44:27;;;;;;;2.63;1.50;;;;;;;;;;5035657;28;20886;-82
2022/08/04 10:47:06;;;;;;;1.07;1.07;;;;;;;;;;5035454;28;20467;-77
2022/08/04 10:49:32;;;;;;;1.40;1.40;;;;;;;;;;5035365;28;20412;-79
2022/08/04 10:52:06;;;;;;;1.30;1.30;;;;;;;;;;5035231;28;20546;-77
2022/08/04 10:54:42;;;;;;;1.10;1.10;;;;;;;;;;5035039;28;20496;-81
2022/08/04 10:57:12;;;;;;;1.20;1.10;;;;;;;;;;5035062;28;20415;-80
2022/08/04 10:59:42;;;;;;;1.03;1.03;;;;;;;;;;5034936;28;20401;-81
2022/08/04 11:02:25;;;;;;;1.27;1.17;;;;;;;;;;5034843;28;20408;-77
2022/08/04 11:05:10;;;;;;;1.23;1.03;;;;;;;;;;5034853;28;20400;-78
2022/08/04 11:07:37;;;;;;;2.57;1.30;;;;;;;;;;5016998;28;21026;-82
2022/08/04 11:10:03;;;;;;;1.07;0.90;;;;;;;;;;5035478;28;20419;-83
2022/08/04 11:12:30;;;;;;;2.00;1.10;;;;;;;;;;5035014;28;20449;-79
2022/08/04 11:14:58;;;;;;;1.10;1.10;;;;;;;;;;5035164;28;20400;-83
2022/08/04 11:17:32;;;;;;;1.00;1.00;;;;;;;;;;5034666;28;20413;-79
2022/08/04 11:20:04;;;;;;;1.03;1.03;;;;;;;;;;5034889;28;20412;-79
2022/08/04 11:22:30;;;;;;;1.00;1.00;;;;;;;;;;5034654;28;20906;-77
2022/08/04 11:25:05;;;;;;;1.53;1.00;;;;;;;;;;5034573;28;20849;-75
2022/08/04 11:27:53;;;;;;;0.90;0.90;;;;;;;;;;5034478;28;20474;-79
2022/08/04 11:30:19;;;;;;;5.77;1.10;;;;;;;;;;5034650;28;20491;-81
2022/08/04 11:33:00;;;;;;;2.37;1.10;;;;;;;;;;5035115;28;20408;-76
2022/08/04 11:35:44;;;;;;;0.93;0.93;;;;;;;;;;5034459;28;20396;-80
2022/08/04 11:38:21;;;;;;;1.37;0.90;;;;;;;;;;5034634;28;20420;-79
2022/08/04 11:40:51;;;;;;;0.90;0.90;;;;;;;;;;5034007;28;20392;-77
2022/08/04 11:43:22;;;;;;;6.00;1.00;;;;;;;;;;5035032;28;20490;-78
2022/08/04 11:45:56;;;;;;;2.87;1.03;;;;;;;;;;5034383;28;20400;-78
2022/08/04 11:48:31;;;;;;;3.33;1.00;;;;;;;;;;5034069;28;20556;-77
2022/08/04 11:51:01;;;;;;;2.10;1.00;;;;;;;;;;5034247;28;20407;-79
2022/08/04 11:53:28;;;;;;;1.10;1.10;;;;;;;;;;5034322;28;20392;-77
2022/08/04 11:55:57;;;;;;;4.73;1.17;;;;;;;;;;5034352;28;20400;-78
2022/08/04 11:58:23;;;;;;;1.00;1.00;;;;;;;;;;5034053;28;20434;-81
2022/08/04 12:00:58;;;;;;;1.23;1.20;;;;;;;;;;5034540;28;20404;-77
2022/08/04 12:03:39;;;;;;;1.27;1.27;;;;;;;;;;5034222;28;20454;-79
2022/08/04 12:06:21;;;;;;;1.10;1.10;;;;;;;;;;5034042;28;20886;-76
2022/08/04 12:08:58;;;;;;;1.17;1.17;;;;;;;;;;5034056;28;20525;-77
2022/08/04 12:11:42;;;;;;;1.47;1.13;;;;;;;;;;5034225;28;20403;-80
2022/08/04 12:14:25;;;;;;;4.47;1.30;;;;;;;;;;5034133;28;20482;-77
2022/08/04 12:17:01;;;;;;;1.33;1.30;;;;;;;;;;5034354;28;20879;-74
2022/08/04 12:19:39;;;;;;;2.30;1.30;;;;;;;;;;5053554;28;20436;-77
2022/08/04 12:22:09;;;;;;;2.10;1.00;;;;;;;;;;5053505;28;20759;-74
2022/08/04 12:24:44;;;;;;;1.20;1.20;;;;;;;;;;5053891;28;20468;-74
2022/08/04 12:27:17;;;;;;;4.10;1.40;;;;;;;;;;5053206;28;21049;-74
2022/08/04 12:29:45;;;;;;;3.20;1.27;;;;;;;;;;5050193;28;20907;-74
2022/08/04 12:32:17;;;;;;;3.67;1.10;;;;;;;;;;5052445;28;20411;-75
2022/08/04 12:34:47;;;;;;;1.10;1.10;;;;;;;;;;5053411;28;20435;-73
2022/08/04 12:37:34;;;;;;;1.20;1.20;;;;;;;;;;5031487;28;20847;-74
2022/08/04 12:40:02;;;;;;;1.10;1.10;;;;;;;;;;5049187;28;20412;-74
2022/08/04 12:42:57;;;;;;;1.40;1.30;;;;;;;;;;5049140;28;20488;-77
2022/08/04 12:45:23;;;;;;;1.00;1.00;;;;;;;;;;5047357;28;20431;-76
2022/08/04 12:47:51;;;;;;;1.70;0.93;;;;;;;;;;5044743;28;20459;-79
2022/08/04 12:50:18;;;;;;;1.07;1.07;;;;;;;;;;5033623;28;20408;-77
2022/08/04 12:52:47;;;;;;;2.20;1.10;;;;;;;;;;5036026;28;20406;-76
2022/08/04 12:55:13;;;;;;;0.83;0.80;;;;;;;;;;5037542;28;20395;-77
2022/08/04 12:57:41;;;;;;;1.40;1.30;;;;;;;;;;5037485;28;20422;-78
2022/08/04 13:00:07;;;;;;;4.10;0.83;;;;;;;;;;5037388;28;20797;-79
2022/08/04 13:02:40;;;;;;;0.80;0.80;;;;;;;;;;5037219;28;20408;-77
2022/08/04 13:05:06;;;;;;;1.40;1.30;;;;;;;;;;5037358;28;20909;-76
2022/08/04 13:07:36;;;;;;;1.07;1.07;;;;;;;;;;5037152;28;20459;-75
2022/08/04 13:10:12;;;;;;;2.37;1.37;;;;;;;;;;5037205;28;20400;-74
2022/08/04 13:12:39;;;;;;;1.70;1.03;;;;;;;;;;5037079;28;20437;-78
2022/08/04 13:15:10;;;;;;;4.40;0.90;;;;;;;;;;5037047;28;20432;-77
2022/08/04 13:17:55;;;;;;;2.30;1.30;;;;;;;;;;5037208;28;20495;-78
2022/08/04 13:20:31;;;;;;;1.77;1.00;;;;;;;;;;5037335;28;20495;-77
2022/08/04 13:23:04;;;;;;;5.70;1.00;;;;;;;;;;5019604;28;20442;-77
2022/08/04 13:25:31;;;;;;;2.37;1.20;;;;;;;;;;5036970;28;20404;-79
2022/08/04 13:27:58;;;;;;;6.63;1.10;;;;;;;;;;5036819;28;20459;-77
2022/08/04 13:30:25;;;;;;;1.27;1.10;;;;;;;;;;5036720;28;20580;-77
2022/08/04 13:32:59;;;;;;;2.20;1.00;;;;;;;;;;5036841;28;20866;-77
2022/08/04 13:35:26;;;;;;;2.20;0.83;;;;;;;;;;5018952;28;20415;-77
2022/08/04 13:37:54;;;;;;;1.10;1.10;;;;;;;;;;5036632;28;20412;-77
2022/08/04 13:40:21;;;;;;;4.23;1.10;;;;;;;;;;5036586;28;20407;-82
2022/08/04 13:42:49;;;;;;;1.13;1.10;;;;;;;;;;5036453;28;20467;-80
2022/08/04 13:45:19;;;;;;;1.10;1.10;;;;;;;;;;5036494;28;20412;-77
2022/08/04 13:47:46;;;;;;;0.90;0.90;;;;;;;;;;5036442;28;20468;-79
2022/08/04 13:50:17;;;;;;;5.70;1.50;;;;;;;;;;5036675;28;20766;-81
2022/08/04 13:52:44;;;;;;;1.00;1.00;;;;;;;;;;5018349;28;20858;-80
2022/08/04 13:55:20;;;;;;;1.80;1.10;;;;;;;;;;5036408;28;20441;-78
2022/08/04 13:57:49;;;;;;;1.33;1.20;;;;;;;;;;5018545;28;20899;-75
2022/08/04 14:00:15;;;;;;;4.23;1.10;;;;;;;;;;5036198;28;20836;-80
2022/08/04 14:02:58;;;;;;;2.43;1.10;;;;;;;;;;5036211;28;20411;-80
2022/08/04 14:05:25;;;;;;;0.97;0.97;;;;;;;;;;5035614;28;20400;-75
2022/08/04 14:08:05;;;;;;;1.07;1.07;;;;;;;;;;5036405;28;20463;-82
2022/08/04 14:10:32;;;;;;;1.10;1.10;;;;;;;;;;5036934;28;20801;-79
2022/08/04 14:12:58;;;;;;;3.50;1.00;;;;;;;;;;5037290;28;20396;-84
2022/08/04 14:15:35;;;;;;;1.20;1.20;;;;;;;;;;5037380;28;20484;-83
2022/08/04 14:18:19;;;;;;;0.93;0.90;;;;;;;;;;5035946;28;20396;-84
2022/08/04 14:21:03;;;;;;;2.10;1.40;;;;;;;;;;5017928;28;20766;-83
2022/08/04 14:23:38;;;;;;;1.17;1.17;;;;;;;;;;5036016;28;20462;-77
2022/08/04 14:26:17;;;;;;;2.00;1.10;;;;;;;;;;5035603;28;20399;-78
2022/08/04 14:28:44;;;;;;;1.17;1.17;;;;;;;;;;5035467;28;20467;-77
2022/08/04 14:31:12;;;;;;;1.07;1.03;;;;;;;;;;5035529;28;20407;-76
2022/08/04 14:33:39;;;;;;;1.47;1.03;;;;;;;;;;5035549;28;20408;-76
2022/08/04 14:36:06;;;;;;;1.17;1.07;;;;;;;;;;5035468;28;20763;-76
2022/08/04 14:38:44;;;;;;;2.40;1.07;;;;;;;;;;5035630;28;20401;-84
2022/08/04 14:41:11;;;;;;;1.13;1.13;;;;;;;;;;5035694;28;20392;-80
2022/08/04 14:43:44;;;;;;;1.77;1.40;;;;;;;;;;5035077;28;20467;-77
2022/08/04 14:46:11;;;;;;;1.33;1.23;;;;;;;;;;5035429;28;20401;-76
2022/08/04 14:48:38;;;;;;;1.77;1.20;;;;;;;;;;5035438;28;20570;-77
2022/08/04 14:51:04;;;;;;;1.80;1.00;;;;;;;;;;5035609;28;20462;-83
2022/08/04 14:53:31;;;;;;;1.90;1.20;;;;;;;;;;5035216;28;20779;-81
2022/08/04 14:55:58;;;;;;;3.97;3.60;;;;;;;;;;5035216;28;20408;-83
2022/08/04 14:58:28;;;;;;;1.40;1.30;;;;;;;;;;5035179;28;20405;-81
2022/08/04 15:00:58;;;;;;;2.93;1.37;;;;;;;;;;5035311;28;20416;-76
2022/08/04 15:03:25;;;;;;;1.63;1.17;;;;;;;;;;5035200;28;20844;-73
2022/08/04 15:05:51;;;;;;;4.23;1.37;;;;;;;;;;5034866;28;20401;-76
2022/08/04 15:08:17;;;;;;;1.10;1.10;;;;;;;;;;5034847;28;20533;-75
2022/08/04 15:10:43;;;;;;;1.37;1.17;;;;;;;;;;5034858;28;20396;-74
2022/08/04 15:13:12;;;;;;;2.33;1.17;;;;;;;;;;5034820;28;20491;-72
2022/08/04 15:15:39;;;;;;;1.80;1.10;;;;;;;;;;5034654;28;20772;-77